Terminal Aerodrome Forecast
Issued by NWS Wilmington, OH

Current Version | Previous Version | Text Only | Print | Product List | Glossary Off
Versions: 1 2 3 4 5 6 7 8 9 10 11 12 13 14 15 16 17 18 19 20 21 22 23 24 25 26 27 28

000
FTUS41 KILN 231700
TAFCMH
TAF
KCMH 231722Z 2318/2418 VRB03KT P6SM OVC020
     FM232100 VRB03KT P6SM SCT020 BKN120
     FM240200 35004KT P6SM SCT020 OVC080
     FM240700 30006KT P6SM BKN020
     FM241500 24010G16KT P6SM BKN020=

USA.gov is the U.S. government's official web portal to all federal, state and local government web resources and services.